SIA55R WSSS-YSSY
Flight info
| Callsign | SIA55R |
|---|---|
| Flight time | N/A |
| Altitude | 35000 |
| Route | IDBUD1B IDBUD T24 SURGA M635 ATMAP A576 CIN/N0490F370 A576 APOMA/N0475F390 Y52 VELGI Y105 TARAL Y59 RIVET |
| Aircraft | B77W/H-SDE1E2E3FGHIJ2J3J4J5M1RWXY/LB1D1 |
Departure
| Time | N/A |
|---|---|
| Airport | Singapore Changi Airport (WSSS) |
Arrival
| Time | 2026-04-26 01:23 |
|---|---|
| Airport | Sydney Kingsford Smith International Airport (YSSY) |
| Time | Latitude | Longitude | Altitude | Speed | Heading |
|---|---|---|---|---|---|
| 2026-04-26 00:45 | -33.25395 | 147.74972 | 37313 ft | 486 kts | 126° |
| 2026-04-26 00:46 | -33.29416 | 147.81475 | 37305 ft | 485 kts | 126° |
| 2026-04-26 00:46 | -33.33421 | 147.87963 | 37307 ft | 484 kts | 127° |
| 2026-04-26 00:47 | -33.37513 | 147.94350 | 37308 ft | 483 kts | 131° |
| 2026-04-26 00:47 | -33.42060 | 148.00269 | 37315 ft | 483 kts | 133° |
| 2026-04-26 00:48 | -33.46657 | 148.06130 | 37314 ft | 483 kts | 133° |
| 2026-04-26 00:48 | -33.51238 | 148.12026 | 37304 ft | 484 kts | 133° |
| 2026-04-26 00:49 | -33.55806 | 148.17960 | 37309 ft | 484 kts | 133° |
| 2026-04-26 00:49 | -33.60366 | 148.23906 | 37309 ft | 485 kts | 133° |
| 2026-04-26 00:50 | -33.64935 | 148.29872 | 37308 ft | 485 kts | 133° |
| 2026-04-26 00:50 | -33.69502 | 148.35844 | 37311 ft | 486 kts | 133° |
| 2026-04-26 00:51 | -33.74068 | 148.41824 | 37290 ft | 485 kts | 133° |
| 2026-04-26 00:51 | -33.76339 | 148.44803 | 37189 ft | 483 kts | 133° |
| 2026-04-26 00:51 | -33.78608 | 148.47780 | 37021 ft | 483 kts | 133° |
| 2026-04-26 00:52 | -33.80873 | 148.50755 | 36835 ft | 482 kts | 133° |
| 2026-04-26 00:52 | -33.83140 | 148.53736 | 36668 ft | 482 kts | 133° |
| 2026-04-26 00:52 | -33.85396 | 148.56704 | 36531 ft | 481 kts | 133° |
| 2026-04-26 00:52 | -33.87623 | 148.59637 | 36536 ft | 482 kts | 133° |
| 2026-04-26 00:53 | -33.92160 | 148.65618 | 36408 ft | 485 kts | 133° |
| 2026-04-26 00:53 | -33.96722 | 148.71643 | 36316 ft | 487 kts | 133° |
| 2026-04-26 00:54 | -34.01286 | 148.77681 | 36310 ft | 488 kts | 133° |
| 2026-04-26 00:54 | -34.05852 | 148.83732 | 36315 ft | 488 kts | 133° |
| 2026-04-26 00:55 | -34.10424 | 148.89802 | 36310 ft | 489 kts | 133° |
| 2026-04-26 00:55 | -34.14990 | 148.95876 | 36311 ft | 489 kts | 133° |
| 2026-04-26 00:56 | -34.19561 | 149.01965 | 36310 ft | 489 kts | 133° |
| 2026-04-26 00:56 | -34.24126 | 149.08058 | 36315 ft | 489 kts | 133° |
| 2026-04-26 00:57 | -34.28692 | 149.14163 | 36312 ft | 489 kts | 133° |
| 2026-04-26 00:57 | -34.33250 | 149.20268 | 36312 ft | 489 kts | 132° |
| 2026-04-26 00:58 | -34.37777 | 149.26341 | 36311 ft | 489 kts | 132° |
| 2026-04-26 00:58 | -34.41895 | 149.32856 | 36299 ft | 488 kts | 118° |
| 2026-04-26 00:59 | -34.43305 | 149.36615 | 35321 ft | 492 kts | 109° |
| 2026-04-26 00:59 | -34.44129 | 149.40580 | 34496 ft | 485 kts | 99° |
| 2026-04-26 00:59 | -34.44590 | 149.44642 | 33495 ft | 488 kts | 97° |
| 2026-04-26 00:59 | -34.45019 | 149.48708 | 32491 ft | 485 kts | 97° |
| 2026-04-26 01:00 | -34.45455 | 149.52774 | 31500 ft | 488 kts | 97° |
| 2026-04-26 01:00 | -34.45913 | 149.56858 | 30620 ft | 488 kts | 97° |
| 2026-04-26 01:00 | -34.46384 | 149.60913 | 29890 ft | 483 kts | 97° |
| 2026-04-26 01:00 | -34.46859 | 149.64922 | 29140 ft | 479 kts | 97° |
| 2026-04-26 01:01 | -34.47333 | 149.68892 | 28468 ft | 473 kts | 97° |
| 2026-04-26 01:01 | -34.47800 | 149.72816 | 27791 ft | 468 kts | 97° |
| 2026-04-26 01:01 | -34.48259 | 149.76699 | 27141 ft | 463 kts | 97° |
| 2026-04-26 01:01 | -34.48713 | 149.80552 | 26485 ft | 459 kts | 97° |
| 2026-04-26 01:02 | -34.49159 | 149.84362 | 25851 ft | 454 kts | 97° |
| 2026-04-26 01:02 | -34.49585 | 149.88130 | 25210 ft | 448 kts | 94° |
| 2026-04-26 01:02 | -34.49580 | 149.91871 | 24604 ft | 442 kts | 82° |
| 2026-04-26 01:02 | -34.48967 | 149.95497 | 23997 ft | 437 kts | 72° |
| 2026-04-26 01:03 | -34.47861 | 149.98904 | 23277 ft | 431 kts | 62° |
| 2026-04-26 01:03 | -34.46442 | 150.02062 | 22649 ft | 427 kts | 60° |
| 2026-04-26 01:03 | -34.45005 | 150.05205 | 22015 ft | 423 kts | 60° |
| 2026-04-26 01:03 | -34.43590 | 150.08313 | 21419 ft | 419 kts | 60° |
| 2026-04-26 01:04 | -34.42197 | 150.11399 | 20826 ft | 416 kts | 61° |
| 2026-04-26 01:04 | -34.40821 | 150.14467 | 20241 ft | 413 kts | 61° |
| 2026-04-26 01:04 | -34.39463 | 150.17514 | 19667 ft | 411 kts | 61° |
| 2026-04-26 01:04 | -34.38112 | 150.20549 | 19097 ft | 409 kts | 61° |
| 2026-04-26 01:05 | -34.36769 | 150.23570 | 18490 ft | 407 kts | 61° |
| 2026-04-26 01:05 | -34.35429 | 150.26579 | 17831 ft | 405 kts | 61° |
| 2026-04-26 01:05 | -34.34097 | 150.29570 | 17233 ft | 402 kts | 61° |
| 2026-04-26 01:05 | -34.32768 | 150.32549 | 16643 ft | 400 kts | 61° |
| 2026-04-26 01:06 | -34.31451 | 150.35501 | 16059 ft | 398 kts | 61° |
| 2026-04-26 01:06 | -34.30138 | 150.38442 | 15492 ft | 396 kts | 61° |
| 2026-04-26 01:06 | -34.28833 | 150.41360 | 14921 ft | 395 kts | 61° |
| 2026-04-26 01:06 | -34.27528 | 150.44275 | 14352 ft | 393 kts | 61° |
| 2026-04-26 01:07 | -34.26228 | 150.47177 | 13732 ft | 392 kts | 61° |
| 2026-04-26 01:07 | -34.24936 | 150.50063 | 13117 ft | 385 kts | 61° |
| 2026-04-26 01:07 | -34.23681 | 150.52864 | 12542 ft | 377 kts | 62° |
| 2026-04-26 01:07 | -34.22437 | 150.55639 | 11993 ft | 375 kts | 62° |
| 2026-04-26 01:08 | -34.21195 | 150.58409 | 11446 ft | 374 kts | 62° |
| 2026-04-26 01:08 | -34.19964 | 150.61150 | 11198 ft | 365 kts | 62° |
| 2026-04-26 01:08 | -34.18773 | 150.63801 | 11034 ft | 354 kts | 62° |
| 2026-04-26 01:08 | -34.17615 | 150.66376 | 10877 ft | 344 kts | 62° |
| 2026-04-26 01:09 | -34.16489 | 150.68878 | 10733 ft | 334 kts | 62° |
| 2026-04-26 01:09 | -34.15410 | 150.71276 | 10597 ft | 325 kts | 62° |
| 2026-04-26 01:09 | -34.14347 | 150.73637 | 10453 ft | 311 kts | 62° |
| 2026-04-26 01:09 | -34.13345 | 150.75863 | 10184 ft | 298 kts | 62° |
| 2026-04-26 01:10 | -34.12364 | 150.78041 | 9712 ft | 288 kts | 62° |
| 2026-04-26 01:10 | -34.11727 | 150.79451 | 9469 ft | 279 kts | 61° |
| 2026-04-26 01:10 | -34.10504 | 150.82160 | 9044 ft | 278 kts | 61° |
| 2026-04-26 01:10 | -34.09882 | 150.83539 | 8862 ft | 276 kts | 61° |
| 2026-04-26 01:11 | -34.08677 | 150.86217 | 8557 ft | 272 kts | 61° |
| 2026-04-26 01:11 | -34.08072 | 150.87563 | 8406 ft | 269 kts | 61° |
| 2026-04-26 01:11 | -34.07184 | 150.89538 | 8173 ft | 266 kts | 61° |
| 2026-04-26 01:11 | -34.06305 | 150.91490 | 7969 ft | 264 kts | 61° |
| 2026-04-26 01:12 | -34.05429 | 150.93432 | 7738 ft | 263 kts | 61° |
| 2026-04-26 01:12 | -34.04558 | 150.95359 | 7538 ft | 261 kts | 61° |
| 2026-04-26 01:12 | -34.03690 | 150.97283 | 7308 ft | 261 kts | 61° |
| 2026-04-26 01:12 | -34.03093 | 150.99308 | 7063 ft | 258 kts | 85° |
| 2026-04-26 01:13 | -34.03384 | 151.01435 | 6904 ft | 263 kts | 112° |
| 2026-04-26 01:13 | -34.04413 | 151.03270 | 6661 ft | 266 kts | 132° |
| 2026-04-26 01:13 | -34.05711 | 151.04886 | 6431 ft | 270 kts | 133° |
| 2026-04-26 01:13 | -34.07017 | 151.06516 | 6205 ft | 270 kts | 133° |
| 2026-04-26 01:14 | -34.08505 | 151.07829 | 5948 ft | 267 kts | 159° |
| 2026-04-26 01:14 | -34.10279 | 151.08345 | 5763 ft | 261 kts | 168° |
| 2026-04-26 01:14 | -34.12062 | 151.08789 | 5572 ft | 263 kts | 168° |
| 2026-04-26 01:14 | -34.13863 | 151.09252 | 5335 ft | 266 kts | 167° |
| 2026-04-26 01:15 | -34.15652 | 151.09714 | 5119 ft | 266 kts | 168° |
| 2026-04-26 01:15 | -34.17487 | 151.10189 | 4872 ft | 266 kts | 167° |
| 2026-04-26 01:15 | -34.19269 | 151.10649 | 4633 ft | 265 kts | 167° |
| 2026-04-26 01:15 | -34.20984 | 151.11392 | 4418 ft | 255 kts | 143° |
| 2026-04-26 01:16 | -34.22106 | 151.12922 | 4388 ft | 248 kts | 114° |
| 2026-04-26 01:16 | -34.22466 | 151.15013 | 4230 ft | 256 kts | 84° |
| 2026-04-26 01:16 | -34.22177 | 151.17104 | 4064 ft | 257 kts | 75° |
| 2026-04-26 01:16 | -34.21745 | 151.19193 | 3869 ft | 255 kts | 73° |
| 2026-04-26 01:17 | -34.21286 | 151.21237 | 3693 ft | 246 kts | 68° |
| 2026-04-26 01:17 | -34.20374 | 151.22893 | 3542 ft | 233 kts | 37° |
| 2026-04-26 01:17 | -34.18936 | 151.23598 | 3410 ft | 222 kts | 3° |
| 2026-04-26 01:17 | -34.17457 | 151.23330 | 3273 ft | 208 kts | 351° |
| 2026-04-26 01:18 | -34.16063 | 151.23089 | 3203 ft | 195 kts | 352° |
| 2026-04-26 01:18 | -34.14779 | 151.22825 | 3173 ft | 180 kts | 350° |
| 2026-04-26 01:18 | -34.13613 | 151.22541 | 3119 ft | 162 kts | 349° |
| 2026-04-26 01:18 | -34.12567 | 151.22273 | 3055 ft | 150 kts | 349° |
| 2026-04-26 01:19 | -34.11444 | 151.21983 | 3032 ft | 190 kts | 349° |
| 2026-04-26 01:19 | -34.10135 | 151.21642 | 2763 ft | 190 kts | 349° |
| 2026-04-26 01:19 | -34.08886 | 151.21314 | 2499 ft | 177 kts | 349° |
| 2026-04-26 01:19 | -34.07752 | 151.21016 | 2288 ft | 155 kts | 349° |
| 2026-04-26 01:20 | -34.06767 | 151.20759 | 2083 ft | 137 kts | 349° |
| 2026-04-26 01:20 | -34.05832 | 151.20516 | 1906 ft | 138 kts | 348° |
| 2026-04-26 01:20 | -34.04882 | 151.20268 | 1734 ft | 141 kts | 348° |
| 2026-04-26 01:20 | -34.03936 | 151.20021 | 1542 ft | 139 kts | 350° |
| 2026-04-26 01:21 | -34.02977 | 151.19779 | 1354 ft | 137 kts | 343° |
| 2026-04-26 01:21 | -34.02054 | 151.19486 | 1166 ft | 139 kts | 349° |
| 2026-04-26 01:21 | -34.01118 | 151.19304 | 997 ft | 135 kts | 347° |
| 2026-04-26 01:21 | -34.00187 | 151.19030 | 786 ft | 139 kts | 347° |
| 2026-04-26 01:22 | -33.99254 | 151.18800 | 630 ft | 136 kts | 347° |
| 2026-04-26 01:22 | -33.98334 | 151.18561 | 453 ft | 135 kts | 345° |
| 2026-04-26 01:22 | -33.97413 | 151.18314 | 250 ft | 135 kts | 345° |
| 2026-04-26 01:22 | -33.96508 | 151.18086 | 97 ft | 131 kts | 346° |
| 2026-04-26 01:23 | -33.95650 | 151.17860 | 27 ft | 115 kts | 346° |
| 2026-04-26 01:23 | -33.95020 | 151.17699 | 29 ft | 70 kts | 348° |
| 2026-04-26 01:23 | -33.94682 | 151.17609 | 28 ft | 37 kts | 345° |
| 2026-04-26 01:23 | -33.94479 | 151.17502 | 29 ft | 24 kts | 333° |
| 2026-04-26 01:24 | -33.94347 | 151.17375 | 29 ft | 24 kts | 316° |
| 2026-04-26 01:24 | -33.94325 | 151.17351 | 30 ft | 0 kts | 319° |
| 2026-04-26 01:25 | -33.94315 | 151.17340 | 30 ft | 3 kts | 319° |
| 2026-04-26 01:25 | -33.94286 | 151.17315 | 29 ft | 7 kts | 328° |
| 2026-04-26 01:25 | -33.94232 | 151.17292 | 27 ft | 10 kts | 346° |
| 2026-04-26 01:25 | -33.94161 | 151.17271 | 27 ft | 11 kts | 346° |
| 2026-04-26 01:26 | -33.94083 | 151.17252 | 27 ft | 12 kts | 348° |
| 2026-04-26 01:26 | -33.93997 | 151.17229 | 26 ft | 14 kts | 347° |
| 2026-04-26 01:26 | -33.93891 | 151.17202 | 22 ft | 17 kts | 348° |
| 2026-04-26 01:26 | -33.93771 | 151.17172 | 22 ft | 18 kts | 348° |
| 2026-04-26 01:27 | -33.93651 | 151.17141 | 28 ft | 18 kts | 348° |
| 2026-04-26 01:27 | -33.93549 | 151.17114 | 28 ft | 9 kts | 344° |
| 2026-04-26 01:27 | -33.93505 | 151.17077 | 30 ft | 7 kts | 303° |
| 2026-04-26 01:27 | -33.93503 | 151.17019 | 30 ft | 8 kts | 255° |
| 2026-04-26 01:28 | -33.93516 | 151.16954 | 28 ft | 7 kts | 256° |
| 2026-04-26 01:28 | -33.93532 | 151.16916 | 30 ft | 2 kts | 237° |
| 2026-04-26 01:28 | -33.93551 | 151.16906 | 28 ft | 4 kts | 189° |
| 2026-04-26 01:28 | -33.93577 | 151.16914 | 31 ft | 4 kts | 165° |
| 2026-04-26 01:29 | -33.93608 | 151.16917 | 27 ft | 5 kts | 177° |
| 2026-04-26 01:29 | -33.93619 | 151.16918 | 30 ft | 0 kts | 177° |